<?xml version='1.0' encoding='UTF-8'?>
<gpx xmlns="http://www.topografix.com/GPX/1/1" creator="www.balnam.be" version="1.1" xmlns:xsi="http://www.w3.org/2001/XMLSchema-instance" xsi:schemaLocation="http://www.topografix.com/GPX/1/1 http://www.topografix.com/GPX/1/1/gpx.xsd">
<trk>
<name>xtlrs25</name>
<cmt>v</cmt>
<desc>Resteigne Chemin n°25 </desc>
<link href="https://chemins.be/resteigne/chemin/25"/><trkseg>
<trkpt lat="50.079386" lon="5.175618"><time>2026-05-02T16:51:47Z</time></trkpt>
<trkpt lat="50.079042" lon="5.175414"><time>2026-05-02T17:01:47Z</time></trkpt>
<trkpt lat="50.077692" lon="5.176437"><time>2026-05-02T17:11:47Z</time></trkpt>
<trkpt lat="50.077356" lon="5.176879"><time>2026-05-02T17:21:47Z</time></trkpt>
</trkseg></trk>
<trk>
<name>xtlrs25</name>
<cmt>s</cmt>
<desc>Resteigne Chemin n°25 </desc>
<link href="https://chemins.be/resteigne/chemin/25"/><trkseg>
<trkpt lat="50.077356" lon="5.176879"><time>2026-05-02T17:21:47Z</time></trkpt>
<trkpt lat="50.076384" lon="5.176988"><time>2026-05-02T17:31:47Z</time></trkpt>
<trkpt lat="50.075624" lon="5.177219"><time>2026-05-02T17:41:47Z</time></trkpt>
</trkseg></trk>
<trk>
<name>xtlrs25</name>
<cmt>v</cmt>
<desc>Resteigne Chemin n°25 </desc>
<link href="https://chemins.be/resteigne/chemin/25"/><trkseg>
<trkpt lat="50.075624" lon="5.177219"><time>2026-05-02T17:41:47Z</time></trkpt>
<trkpt lat="50.073811" lon="5.177224"><time>2026-05-02T17:51:47Z</time></trkpt>
<trkpt lat="50.072315" lon="5.178181"><time>2026-05-02T18:01:47Z</time></trkpt>
<trkpt lat="50.071373" lon="5.178747"><time>2026-05-02T18:11:47Z</time></trkpt>
<trkpt lat="50.069662" lon="5.179957"><time>2026-05-02T18:21:47Z</time></trkpt>
<trkpt lat="50.066764" lon="5.182049"><time>2026-05-02T18:31:47Z</time></trkpt>
<trkpt lat="50.063923" lon="5.184613"><time>2026-05-02T18:41:47Z</time></trkpt>
<trkpt lat="50.063008" lon="5.184248"><time>2026-05-02T18:51:47Z</time></trkpt>
<trkpt lat="50.062811" lon="5.185418"><time>2026-05-02T19:01:47Z</time></trkpt>
<trkpt lat="50.061353" lon="5.186888"><time>2026-05-02T19:11:47Z</time></trkpt>
<trkpt lat="50.058502" lon="5.187048"><time>2026-05-02T19:21:47Z</time></trkpt>
<trkpt lat="50.057345" lon="5.186581"><time>2026-05-02T19:31:47Z</time></trkpt>
<trkpt lat="50.056068" lon="5.186643"><time>2026-05-02T19:41:47Z</time></trkpt>
<trkpt lat="50.054599" lon="5.184593"><time>2026-05-02T19:51:47Z</time></trkpt>
<trkpt lat="50.053110" lon="5.184079"><time>2026-05-02T20:01:47Z</time></trkpt>
<trkpt lat="50.052481" lon="5.183929"><time>2026-05-02T20:11:47Z</time></trkpt>
<trkpt lat="50.051438" lon="5.183292"><time>2026-05-02T20:21:47Z</time></trkpt>
<trkpt lat="50.051092" lon="5.182570"><time>2026-05-02T20:31:47Z</time></trkpt>
<trkpt lat="50.050835" lon="5.182520"><time>2026-05-02T20:41:47Z</time></trkpt>
<trkpt lat="50.050268" lon="5.181898"><time>2026-05-02T20:51:47Z</time></trkpt>
<trkpt lat="50.048978" lon="5.180572"><time>2026-05-02T21:01:47Z</time></trkpt>
<trkpt lat="50.048096" lon="5.180215"><time>2026-05-02T21:11:47Z</time></trkpt>
<trkpt lat="50.044819" lon="5.179950"><time>2026-05-02T21:21:47Z</time></trkpt>
</trkseg></trk>
<trk>
<name>xtlrs25</name>
<cmt>d</cmt>
<desc>Resteigne Chemin n°25 </desc>
<link href="https://chemins.be/resteigne/chemin/25"/><trkseg>
<trkpt lat="50.044819" lon="5.179950"><time>2026-05-02T21:21:47Z</time></trkpt>
<trkpt lat="50.042163" lon="5.178392"><time>2026-05-02T21:31:47Z</time></trkpt>
</trkseg>
</trk>
</gpx>